Current Conditions
Mostly Scattered
Clouds



Pressure
30.01 (inHG) - 1016.22 (mb)
Visibility

10.0 (mimiles) - 16.1 (km)
   Temperature
66  °F
19°C
64  °F
Dewpoint
94  %
 Humidity
   Wind Speed
3  mph
3  kts
5  km/h
1.3  m/s
   Wind Direction
 70°
East North
East
   Airport Data
KAVP
Location Wilkes-Barre / Scranton International 10 mi (16.09 km)
Metar :KAVP 190954Z 07003KT 10SM SCT120 19/18 A3001 RMK AO2 SLP154 T01940183
Mon 19th August 05:54 am
   Raw Metar Info
Raw METAR is the most common format in the world for the transmission of observational weather data. It is highly standardized through the International Civil Aviation Organization (ICAO), which allows it to be understood throughout most of the world.
   API Info
Data Provided by
https://www.checkwx.com/weather/KAVP
   © Info
CSS/SVG/PHP scripts were developed by weather34.com for use in the weather34 template © 2015-2019

Guide Info provided by Metar-Wikipedia